Time;durP1;ratioP1;P1;durP2;ratioP2;P2;SDS_P1;SDS_P2;PMS_P1;PMS_P2;Temp;Humidity;BMP_temperature;BMP_pressure;BME280_temperature;BME280_humidity;BME280_pressure;Samples;Min_cycle;Max_cycle;Signal;HPM_P1;HPM_P2
2022/02/28 00:00:17;;;;;;;;;;;;;;;;;;1047771;28;834;-42
2022/02/28 00:00:53;;;;;;;;;;;;;;;;;;1047715;28;929;-48
2022/02/28 00:01:25;;;;;;;;;;;;;;;;;;1047743;28;976;-45
2022/02/28 00:01:56;;;;;;;;;;;;;;;;;;1047740;28;782;-44
2022/02/28 00:02:27;;;;;;;;;;;;;;;;;;1047823;28;923;-43
2022/02/28 00:02:57;;;;;;;;;;;;;;;;;;1047788;28;810;-43
2022/02/28 00:03:28;;;;;;;;;;;;;;;;;;1047669;28;881;-43
2022/02/28 00:03:58;;;;;;;;;;;;;;;;;;1047173;28;886;-42
2022/02/28 00:04:28;;;;;;;;;;;;;;;;;;1047589;28;913;-43
2022/02/28 00:04:59;;;;;;;;;;;;;;;;;;1047912;28;1610;-42
2022/02/28 00:05:30;;;;;;;;;;;;;;;;;;1047678;28;880;-44
2022/02/28 00:06:00;;;;;;;;;;;;;;;;;;1043400;28;889;-42
2022/02/28 00:06:30;;;;;;;;;;;;;;;;;;1043355;28;841;-46
2022/02/28 00:07:01;;;;;;;;;;;;;;;;;;1043230;28;866;-43
2022/02/28 00:07:31;;;;;;;;;;;;;;;;;;1043239;28;841;-46
2022/02/28 00:08:02;;;;;;;;;;;;;;;;;;1047835;28;814;-43
2022/02/28 00:08:32;;;;;;;;;;;;;;;;;;1047687;28;793;-42
2022/02/28 00:09:03;;;;;;;;;;;;;;;;;;1047748;28;870;-47
2022/02/28 00:09:33;;;;;;;;;;;;;;;;;;1047621;28;782;-43
2022/02/28 00:10:04;;;;;;;;;;;;;;;;;;1047848;28;1922;-44
2022/02/28 00:10:34;;;;;;;;;;;;;;;;;;1047625;28;841;-44
2022/02/28 00:11:05;;;;;;;;;;;;;;;;;;1047382;28;987;-42
2022/02/28 00:11:35;;;;;;;;;;;;;;;;;;1047332;28;940;-46
2022/02/28 00:12:06;;;;;;;;;;;;;;;;;;1047747;28;967;-44
2022/02/28 00:12:36;;;;;;;;;;;;;;;;;;1047671;28;841;-42
2022/02/28 00:13:07;;;;;;;;;;;;;;;;;;1047811;28;932;-44
2022/02/28 00:13:37;;;;;;;;;;;;;;;;;;1047554;28;909;-43
2022/02/28 00:14:07;;;;;;;;;;;;;;;;;;1047740;28;952;-44
2022/02/28 00:14:38;;;;;;;;;;;;;;;;;;1047730;28;889;-44
2022/02/28 00:15:09;;;;;;;;;;;;;;;;;;1047602;28;770;-43
2022/02/28 00:15:39;;;;;;;;;;;;;;;;;;1047758;28;849;-42
2022/02/28 00:16:10;;;;;;;;;;;;;;;;;;1047699;28;912;-43
2022/02/28 00:16:40;;;;;;;;;;;;;;;;;;1047725;28;841;-46
2022/02/28 00:17:10;;;;;;;;;;;;;;;;;;1047708;28;837;-44
2022/02/28 00:17:41;;;;;;;;;;;;;;;;;;1047601;28;809;-45
2022/02/28 00:18:11;;;;;;;;;;;;;;;;;;1047725;28;905;-45
2022/02/28 00:18:41;;;;;;;;;;;;;;;;;;1047664;28;877;-43
2022/02/28 00:19:12;;;;;;;;;;;;;;;;;;1048514;28;1004;-44
2022/02/28 00:19:43;;;;;;;;;;;;;;;;;;1048594;28;814;-46
2022/02/28 00:20:14;;;;;;;;;;;;;;;;;;1048534;28;905;-45
2022/02/28 00:20:44;;;;;;;;;;;;;;;;;;1044192;28;810;-44
2022/02/28 00:21:14;;;;;;;;;;;;;;;;;;1044061;28;940;-43
2022/02/28 00:21:44;;;;;;;;;;;;;;;;;;1044118;28;939;-44
2022/02/28 00:22:15;;;;;;;;;;;;;;;;;;1044254;28;790;-43
2022/02/28 00:22:45;;;;;;;;;;;;;;;;;;1048511;28;814;-42
2022/02/28 00:23:16;;;;;;;;;;;;;;;;;;1048633;28;889;-44
2022/02/28 00:23:46;;;;;;;;;;;;;;;;;;1048519;28;858;-45
2022/02/28 00:24:16;;;;;;;;;;;;;;;;;;1048451;28;798;-43
2022/02/28 00:24:47;;;;;;;;;;;;;;;;;;1048617;28;916;-43
2022/02/28 00:25:18;;;;;;;;;;;;;;;;;;1048529;28;789;-43
2022/02/28 00:25:48;;;;;;;;;;;;;;;;;;1048461;28;929;-42
2022/02/28 00:26:18;;;;;;;;;;;;;;;;;;1047903;28;917;-43
2022/02/28 00:26:49;;;;;;;;;;;;;;;;;;1048387;28;881;-43
2022/02/28 00:27:20;;;;;;;;;;;;;;;;;;1044110;28;834;-42
2022/02/28 00:27:50;;;;;;;;;;;;;;;;;;1043878;28;984;-45
2022/02/28 00:28:21;;;;;;;;;;;;;;;;;;1044183;28;870;-44
2022/02/28 00:28:51;;;;;;;;;;;;;;;;;;1044164;28;897;-43
2022/02/28 00:29:22;;;;;;;;;;;;;;;;;;1048473;28;945;-46
2022/02/28 00:29:52;;;;;;;;;;;;;;;;;;1048472;28;1987;-47
2022/02/28 00:30:23;;;;;;;;;;;;;;;;;;1048549;28;822;-44
2022/02/28 00:30:54;;;;;;;;;;;;;;;;;;1048512;28;861;-43
2022/02/28 00:31:24;;;;;;;;;;;;;;;;;;1048557;28;925;-43
2022/02/28 00:31:55;;;;;;;;;;;;;;;;;;1047926;28;834;-45
2022/02/28 00:32:25;;;;;;;;;;;;;;;;;;1048361;28;794;-42
2022/02/28 00:32:56;;;;;;;;;;;;;;;;;;1048274;28;884;-43
2022/02/28 00:33:26;;;;;;;;;;;;;;;;;;1047522;28;857;-44
2022/02/28 00:33:57;;;;;;;;;;;;;;;;;;1043938;28;1394;-43
2022/02/28 00:34:27;;;;;;;;;;;;;;;;;;1043972;28;778;-43
2022/02/28 00:34:58;;;;;;;;;;;;;;;;;;1044121;28;980;-43
2022/02/28 00:35:28;;;;;;;;;;;;;;;;;;1044098;28;825;-43
2022/02/28 00:35:59;;;;;;;;;;;;;;;;;;1048493;28;1000;-42
2022/02/28 00:36:29;;;;;;;;;;;;;;;;;;1048546;28;758;-42
2022/02/28 00:37:00;;;;;;;;;;;;;;;;;;1048566;28;798;-42
2022/02/28 00:37:32;;;;;;;;;;;;;;;;;;1048330;28;794;-43
2022/02/28 00:38:04;;;;;;;;;;;;;;;;;;1048551;28;888;-42
2022/02/28 00:38:36;;;;;;;;;;;;;;;;;;1048306;28;787;-43
2022/02/28 00:39:06;;;;;;;;;;;;;;;;;;1048620;28;849;-42
2022/02/28 00:39:36;;;;;;;;;;;;;;;;;;1043912;28;810;-42
2022/02/28 00:40:07;;;;;;;;;;;;;;;;;;1043906;28;1241;-43
2022/02/28 00:40:38;;;;;;;;;;;;;;;;;;1043893;28;862;-42
2022/02/28 00:41:09;;;;;;;;;;;;;;;;;;1039483;28;1307;-43
2022/02/28 00:41:39;;;;;;;;;;;;;;;;;;1043900;28;1141;-41
2022/02/28 00:42:11;;;;;;;;;;;;;;;;;;1044102;28;905;-41
2022/02/28 00:42:42;;;;;;;;;;;;;;;;;;1044217;28;897;-46
2022/02/28 00:43:12;;;;;;;;;;;;;;;;;;1047997;28;1004;-42
2022/02/28 00:43:43;;;;;;;;;;;;;;;;;;1044251;28;822;-41
2022/02/28 00:44:13;;;;;;;;;;;;;;;;;;1044341;28;791;-42
2022/02/28 00:44:43;;;;;;;;;;;;;;;;;;1044357;28;924;-46
2022/02/28 00:45:16;;;;;;;;;;;;;;;;;;1039787;28;1165;-42
2022/02/28 00:45:46;;;;;;;;;;;;;;;;;;1043972;28;1195;-43
2022/02/28 00:46:18;;;;;;;;;;;;;;;;;;1044130;28;791;-43
2022/02/28 00:46:48;;;;;;;;;;;;;;;;;;1044020;28;803;-45
2022/02/28 00:47:19;;;;;;;;;;;;;;;;;;1043778;28;1159;-44
2022/02/28 00:47:50;;;;;;;;;;;;;;;;;;1039634;28;949;-44
2022/02/28 00:48:20;;;;;;;;;;;;;;;;;;1039209;28;1229;-44
2022/02/28 00:48:51;;;;;;;;;;;;;;;;;;1039891;28;1012;-47
2022/02/28 00:49:21;;;;;;;;;;;;;;;;;;1044264;28;861;-43
2022/02/28 00:49:52;;;;;;;;;;;;;;;;;;1044144;28;1910;-45
2022/02/28 00:50:22;;;;;;;;;;;;;;;;;;1044393;28;841;-46
2022/02/28 00:50:53;;;;;;;;;;;;;;;;;;1044118;28;925;-42
2022/02/28 00:51:23;;;;;;;;;;;;;;;;;;1044425;28;853;-43
2022/02/28 00:51:54;;;;;;;;;;;;;;;;;;1039650;28;992;-46
2022/02/28 00:52:24;;;;;;;;;;;;;;;;;;1035872;28;834;-42
2022/02/28 00:52:54;;;;;;;;;;;;;;;;;;1035628;28;802;-43
2022/02/28 00:53:25;;;;;;;;;;;;;;;;;;1035875;28;906;-47
2022/02/28 00:53:55;;;;;;;;;;;;;;;;;;1039783;28;909;-44
2022/02/28 00:54:27;;;;;;;;;;;;;;;;;;1044279;28;905;-42
2022/02/28 00:54:58;;;;;;;;;;;;;;;;;;1044349;28;810;-43
2022/02/28 00:55:29;;;;;;;;;;;;;;;;;;1039361;28;1277;-43
2022/02/28 00:56:00;;;;;;;;;;;;;;;;;;1041128;28;1175;-43
2022/02/28 00:56:31;;;;;;;;;;;;;;;;;;1043741;28;1352;-43
2022/02/28 00:57:01;;;;;;;;;;;;;;;;;;1043871;28;1359;-43
2022/02/28 00:57:31;;;;;;;;;;;;;;;;;;1043713;28;921;-42
2022/02/28 00:58:02;;;;;;;;;;;;;;;;;;1039957;28;1151;-42
2022/02/28 00:58:33;;;;;;;;;;;;;;;;;;1047881;28;818;-42
2022/02/28 00:59:03;;;;;;;;;;;;;;;;;;1044017;28;1151;-42
2022/02/28 00:59:34;;;;;;;;;;;;;;;;;;1043898;28;834;-43
2022/02/28 01:00:07;;;;;;;;;;;;;;;;;;1044055;28;799;-44
2022/02/28 01:00:37;;;;;;;;;;;;;;;;;;1044337;28;787;-43
2022/02/28 01:01:08;;;;;;;;;;;;;;;;;;1043748;28;1307;-46
2022/02/28 01:01:38;;;;;;;;;;;;;;;;;;1043984;28;996;-42
2022/02/28 01:02:09;;;;;;;;;;;;;;;;;;1044018;28;847;-43
2022/02/28 01:02:39;;;;;;;;;;;;;;;;;;1044007;28;807;-42
2022/02/28 01:03:10;;;;;;;;;;;;;;;;;;1047780;28;767;-42
2022/02/28 01:03:40;;;;;;;;;;;;;;;;;;1048250;28;960;-42
2022/02/28 01:04:11;;;;;;;;;;;;;;;;;;1048525;28;794;-44
2022/02/28 01:04:41;;;;;;;;;;;;;;;;;;1043892;28;1479;-42
2022/02/28 01:05:12;;;;;;;;;;;;;;;;;;1043960;28;965;-43
2022/02/28 01:05:42;;;;;;;;;;;;;;;;;;1043919;28;932;-42
2022/02/28 01:06:13;;;;;;;;;;;;;;;;;;1043998;28;861;-42
2022/02/28 01:06:44;;;;;;;;;;;;;;;;;;1043917;28;878;-42
2022/02/28 01:07:14;;;;;;;;;;;;;;;;;;1044042;28;888;-42
2022/02/28 01:07:45;;;;;;;;;;;;;;;;;;1043578;28;984;-46
2022/02/28 01:08:16;;;;;;;;;;;;;;;;;;1040026;28;929;-44
2022/02/28 01:08:46;;;;;;;;;;;;;;;;;;1043982;28;889;-42
2022/02/28 01:09:17;;;;;;;;;;;;;;;;;;1044028;28;881;-42
2022/02/28 01:09:47;;;;;;;;;;;;;;;;;;1043934;28;795;-42
2022/02/28 01:10:19;;;;;;;;;;;;;;;;;;1043404;28;1976;-43
2022/02/28 01:10:50;;;;;;;;;;;;;;;;;;1043818;28;763;-43
2022/02/28 01:11:20;;;;;;;;;;;;;;;;;;1039888;28;1133;-41
2022/02/28 01:11:51;;;;;;;;;;;;;;;;;;1039951;28;854;-42
2022/02/28 01:12:22;;;;;;;;;;;;;;;;;;1039925;28;1346;-45
2022/02/28 01:12:52;;;;;;;;;;;;;;;;;;1039695;28;1184;-41
2022/02/28 01:13:23;;;;;;;;;;;;;;;;;;1039719;28;1434;-42
2022/02/28 01:13:53;;;;;;;;;;;;;;;;;;1039838;28;898;-42
2022/02/28 01:14:24;;;;;;;;;;;;;;;;;;1043987;28;834;-43
2022/02/28 01:14:55;;;;;;;;;;;;;;;;;;1044053;28;762;-44
2022/02/28 01:15:25;;;;;;;;;;;;;;;;;;1048371;28;925;-44
2022/02/28 01:15:56;;;;;;;;;;;;;;;;;;1043745;28;1179;-43
2022/02/28 01:16:26;;;;;;;;;;;;;;;;;;1044041;28;945;-41
2022/02/28 01:16:56;;;;;;;;;;;;;;;;;;1043916;28;767;-41
2022/02/28 01:17:28;;;;;;;;;;;;;;;;;;1043969;28;822;-42
2022/02/28 01:17:58;;;;;;;;;;;;;;;;;;1047629;28;822;-43
2022/02/28 01:18:28;;;;;;;;;;;;;;;;;;1048359;28;889;-46
2022/02/28 01:19:00;;;;;;;;;;;;;;;;;;1048445;28;783;-43
2022/02/28 01:19:30;;;;;;;;;;;;;;;;;;1043719;28;1253;-43
2022/02/28 01:20:00;;;;;;;;;;;;;;;;;;1043840;28;1374;-42
2022/02/28 01:20:32;;;;;;;;;;;;;;;;;;1044025;28;836;-42
2022/02/28 01:21:02;;;;;;;;;;;;;;;;;;1043926;28;1015;-42
2022/02/28 01:21:32;;;;;;;;;;;;;;;;;;1048095;28;830;-44
2022/02/28 01:22:03;;;;;;;;;;;;;;;;;;1043800;28;1207;-42
2022/02/28 01:22:33;;;;;;;;;;;;;;;;;;1039558;28;1251;-42
2022/02/28 01:23:04;;;;;;;;;;;;;;;;;;1039750;28;869;-42
2022/02/28 01:23:34;;;;;;;;;;;;;;;;;;1039764;28;857;-41
2022/02/28 01:24:05;;;;;;;;;;;;;;;;;;1043951;28;968;-43
2022/02/28 01:24:36;;;;;;;;;;;;;;;;;;1043692;28;1342;-44
2022/02/28 01:25:07;;;;;;;;;;;;;;;;;;1043275;28;847;-41
2022/02/28 01:25:38;;;;;;;;;;;;;;;;;;1043741;28;1196;-42
2022/02/28 01:26:08;;;;;;;;;;;;;;;;;;1043968;28;1019;-42
2022/02/28 01:26:38;;;;;;;;;;;;;;;;;;1048052;28;747;-42
2022/02/28 01:27:09;;;;;;;;;;;;;;;;;;1047998;28;944;-42
2022/02/28 01:27:39;;;;;;;;;;;;;;;;;;1047808;28;878;-43
2022/02/28 01:28:10;;;;;;;;;;;;;;;;;;1047976;28;779;-42
2022/02/28 01:28:40;;;;;;;;;;;;;;;;;;1048008;28;739;-41
2022/02/28 01:29:11;;;;;;;;;;;;;;;;;;1043726;28;1148;-42
2022/02/28 01:29:42;;;;;;;;;;;;;;;;;;1043869;28;956;-43
2022/02/28 01:30:12;;;;;;;;;;;;;;;;;;1043037;28;1988;-41
2022/02/28 01:30:43;;;;;;;;;;;;;;;;;;1039832;28;1183;-42
2022/02/28 01:31:14;;;;;;;;;;;;;;;;;;1039639;28;1261;-42
2022/02/28 01:31:44;;;;;;;;;;;;;;;;;;1039704;28;925;-42
2022/02/28 01:32:15;;;;;;;;;;;;;;;;;;1039723;28;794;-42
2022/02/28 01:32:46;;;;;;;;;;;;;;;;;;1039074;28;1489;-41
2022/02/28 01:33:16;;;;;;;;;;;;;;;;;;1043945;28;1216;-42
2022/02/28 01:33:47;;;;;;;;;;;;;;;;;;1039578;28;1158;-43
2022/02/28 01:34:17;;;;;;;;;;;;;;;;;;1035500;28;2388;-43
2022/02/28 01:34:47;;;;;;;;;;;;;;;;;;1039652;28;811;-43
2022/02/28 01:35:18;;;;;;;;;;;;;;;;;;1039781;28;870;-42
2022/02/28 01:35:49;;;;;;;;;;;;;;;;;;1043784;28;885;-41
2022/02/28 01:36:19;;;;;;;;;;;;;;;;;;1043907;28;949;-41
2022/02/28 01:36:50;;;;;;;;;;;;;;;;;;1043621;28;1423;-41
2022/02/28 01:37:20;;;;;;;;;;;;;;;;;;1043806;28;1124;-42
2022/02/28 01:37:50;;;;;;;;;;;;;;;;;;1043715;28;1193;-42
2022/02/28 01:38:21;;;;;;;;;;;;;;;;;;1043783;28;850;-43
2022/02/28 01:38:51;;;;;;;;;;;;;;;;;;1047998;28;833;-42
2022/02/28 01:39:21;;;;;;;;;;;;;;;;;;1047820;28;1267;-44
2022/02/28 01:39:52;;;;;;;;;;;;;;;;;;1047678;28;937;-44
2022/02/28 01:40:22;;;;;;;;;;;;;;;;;;1047630;28;930;-42
2022/02/28 01:40:52;;;;;;;;;;;;;;;;;;1047755;28;1212;-42
2022/02/28 01:41:23;;;;;;;;;;;;;;;;;;1048250;28;1017;-42
2022/02/28 01:41:53;;;;;;;;;;;;;;;;;;1048095;28;779;-43
2022/02/28 01:42:24;;;;;;;;;;;;;;;;;;1048349;28;920;-45
2022/02/28 01:42:54;;;;;;;;;;;;;;;;;;1048161;28;845;-43
2022/02/28 01:43:24;;;;;;;;;;;;;;;;;;1043660;28;1258;-44
2022/02/28 01:43:55;;;;;;;;;;;;;;;;;;1043660;28;1202;-44
2022/02/28 01:44:26;;;;;;;;;;;;;;;;;;1043937;28;937;-43
2022/02/28 01:44:56;;;;;;;;;;;;;;;;;;1043666;28;767;-44
2022/02/28 01:45:26;;;;;;;;;;;;;;;;;;1043788;28;940;-45
2022/02/28 01:45:57;;;;;;;;;;;;;;;;;;1048212;28;834;-43
2022/02/28 01:46:27;;;;;;;;;;;;;;;;;;1048267;28;811;-42
2022/02/28 01:47:00;;;;;;;;;;;;;;;;;;1048285;28;794;-43
2022/02/28 01:47:30;;;;;;;;;;;;;;;;;;1047323;28;794;-42
2022/02/28 01:48:01;;;;;;;;;;;;;;;;;;1048210;28;893;-43
2022/02/28 01:48:32;;;;;;;;;;;;;;;;;;1043418;28;1167;-45
2022/02/28 01:49:02;;;;;;;;;;;;;;;;;;1043683;28;1313;-43
2022/02/28 01:49:33;;;;;;;;;;;;;;;;;;1043614;28;1314;-43
2022/02/28 01:50:04;;;;;;;;;;;;;;;;;;1039421;28;1994;-45
2022/02/28 01:50:34;;;;;;;;;;;;;;;;;;1039684;28;834;-45
2022/02/28 01:51:05;;;;;;;;;;;;;;;;;;1039747;28;1356;-45
2022/02/28 01:51:36;;;;;;;;;;;;;;;;;;1039648;28;1210;-42
2022/02/28 01:52:06;;;;;;;;;;;;;;;;;;1039553;28;1409;-44
2022/02/28 01:52:38;;;;;;;;;;;;;;;;;;1043652;28;807;-42
2022/02/28 01:53:08;;;;;;;;;;;;;;;;;;1039793;28;1156;-43
2022/02/28 01:53:38;;;;;;;;;;;;;;;;;;1043880;28;831;-43
2022/02/28 01:54:09;;;;;;;;;;;;;;;;;;1043680;28;858;-45
2022/02/28 01:54:40;;;;;;;;;;;;;;;;;;1043728;28;862;-42
2022/02/28 01:55:11;;;;;;;;;;;;;;;;;;1047678;28;1107;-43
2022/02/28 01:55:41;;;;;;;;;;;;;;;;;;1043806;28;1159;-43
2022/02/28 01:56:12;;;;;;;;;;;;;;;;;;1040419;28;1242;-44
2022/02/28 01:56:42;;;;;;;;;;;;;;;;;;1035523;28;1183;-44
2022/02/28 01:57:13;;;;;;;;;;;;;;;;;;1031499;28;1262;-43
2022/02/28 01:57:44;;;;;;;;;;;;;;;;;;1031460;28;1328;-47
2022/02/28 01:58:15;;;;;;;;;;;;;;;;;;1031677;28;1153;-45
2022/02/28 01:58:46;;;;;;;;;;;;;;;;;;1036020;28;845;-43
2022/02/28 01:59:17;;;;;;;;;;;;;;;;;;1035675;28;1275;-45
2022/02/28 01:59:47;;;;;;;;;;;;;;;;;;1039911;28;853;-46
2022/02/28 02:00:19;;;;;;;;;;;;;;;;;;1043614;28;1237;-45
2022/02/28 02:00:50;;;;;;;;;;;;;;;;;;1039926;28;1333;-43
2022/02/28 02:01:20;;;;;;;;;;;;;;;;;;1043759;28;814;-43
2022/02/28 02:01:51;;;;;;;;;;;;;;;;;;1043708;28;1635;-43
2022/02/28 02:02:21;;;;;;;;;;;;;;;;;;1038847;28;1139;-41
2022/02/28 02:02:51;;;;;;;;;;;;;;;;;;1043832;28;937;-41
2022/02/28 02:03:22;;;;;;;;;;;;;;;;;;1043612;28;795;-41
2022/02/28 02:03:52;;;;;;;;;;;;;;;;;;1043902;28;924;-40
2022/02/28 02:04:23;;;;;;;;;;;;;;;;;;1047970;28;818;-41
2022/02/28 02:04:53;;;;;;;;;;;;;;;;;;1047847;28;1271;-42
2022/02/28 02:05:24;;;;;;;;;;;;;;;;;;1043608;28;1314;-41
2022/02/28 02:05:54;;;;;;;;;;;;;;;;;;1043744;28;758;-42
2022/02/28 02:06:26;;;;;;;;;;;;;;;;;;1039506;28;1240;-41
2022/02/28 02:06:56;;;;;;;;;;;;;;;;;;1035742;28;1239;-43
2022/02/28 02:07:27;;;;;;;;;;;;;;;;;;1035308;28;1156;-41
2022/02/28 02:07:58;;;;;;;;;;;;;;;;;;1031722;28;1121;-40
2022/02/28 02:08:30;;;;;;;;;;;;;;;;;;1039558;28;1090;-41
2022/02/28 02:09:02;;;;;;;;;;;;;;;;;;1039888;28;1236;-41
2022/02/28 02:09:34;;;;;;;;;;;;;;;;;;1043056;28;1226;-43
2022/02/28 02:10:05;;;;;;;;;;;;;;;;;;1043564;28;1910;-42
2022/02/28 02:10:36;;;;;;;;;;;;;;;;;;1043628;28;829;-45
2022/02/28 02:11:06;;;;;;;;;;;;;;;;;;1039499;28;1329;-42
2022/02/28 02:11:39;;;;;;;;;;;;;;;;;;1039476;28;1392;-43
2022/02/28 02:12:10;;;;;;;;;;;;;;;;;;1039661;28;1128;-43
2022/02/28 02:12:42;;;;;;;;;;;;;;;;;;1039706;28;1183;-42
2022/02/28 02:13:12;;;;;;;;;;;;;;;;;;1040088;28;1345;-41
2022/02/28 02:13:43;;;;;;;;;;;;;;;;;;1039438;28;1216;-41
2022/02/28 02:14:13;;;;;;;;;;;;;;;;;;1035448;28;2005;-43
2022/02/28 02:14:44;;;;;;;;;;;;;;;;;;1035437;28;1164;-46
2022/02/28 02:15:15;;;;;;;;;;;;;;;;;;1039664;28;937;-42
2022/02/28 02:15:47;;;;;;;;;;;;;;;;;;1039844;28;979;-43
2022/02/28 02:16:18;;;;;;;;;;;;;;;;;;1039578;28;843;-42
2022/02/28 02:16:48;;;;;;;;;;;;;;;;;;1039454;28;814;-44
2022/02/28 02:17:19;;;;;;;;;;;;;;;;;;1039039;28;968;-43
2022/02/28 02:17:49;;;;;;;;;;;;;;;;;;1039360;28;1168;-44
2022/02/28 02:18:23;;;;;;;;;;;;;;;;;;1043726;28;984;-44
2022/02/28 02:18:54;;;;;;;;;;;;;;;;;;1039679;28;2086;-43
2022/02/28 02:19:24;;;;;;;;;;;;;;;;;;1035818;28;1117;-42
2022/02/28 02:19:55;;;;;;;;;;;;;;;;;;1039593;28;1165;-41
2022/02/28 02:20:25;;;;;;;;;;;;;;;;;;1039459;28;1286;-42
2022/02/28 02:20:56;;;;;;;;;;;;;;;;;;1043840;28;806;-45
2022/02/28 02:21:28;;;;;;;;;;;;;;;;;;1043562;28;870;-46
2022/02/28 02:21:58;;;;;;;;;;;;;;;;;;1043661;28;1127;-42
2022/02/28 02:22:29;;;;;;;;;;;;;;;;;;1043745;28;880;-43
2022/02/28 02:23:01;;;;;;;;;;;;;;;;;;1043586;28;1242;-43
2022/02/28 02:23:32;;;;;;;;;;;;;;;;;;1039397;28;870;-46
2022/02/28 02:24:03;;;;;;;;;;;;;;;;;;1035348;28;1387;-43
2022/02/28 02:24:33;;;;;;;;;;;;;;;;;;1035199;28;822;-43
2022/02/28 02:25:04;;;;;;;;;;;;;;;;;;1039720;28;854;-44
2022/02/28 02:25:35;;;;;;;;;;;;;;;;;;1043665;28;944;-41
2022/02/28 02:26:05;;;;;;;;;;;;;;;;;;1048020;28;895;-44
2022/02/28 02:26:35;;;;;;;;;;;;;;;;;;1048169;28;928;-43
2022/02/28 02:27:06;;;;;;;;;;;;;;;;;;1043527;28;802;-44
2022/02/28 02:27:36;;;;;;;;;;;;;;;;;;1043406;28;1674;-44
2022/02/28 02:28:08;;;;;;;;;;;;;;;;;;1043644;28;896;-42
2022/02/28 02:28:38;;;;;;;;;;;;;;;;;;1043756;28;845;-43
2022/02/28 02:29:09;;;;;;;;;;;;;;;;;;1047839;28;945;-42
2022/02/28 02:29:42;;;;;;;;;;;;;;;;;;1047577;28;1270;-41
2022/02/28 02:30:13;;;;;;;;;;;;;;;;;;1043497;28;1977;-43
2022/02/28 02:30:48;;;;;;;;;;;;;;;;;;1039434;28;1320;-42
2022/02/28 02:31:18;;;;;;;;;;;;;;;;;;1035317;28;1226;-43
2022/02/28 02:31:51;;;;;;;;;;;;;;;;;;1031759;28;1416;-42
2022/02/28 02:32:21;;;;;;;;;;;;;;;;;;1036191;28;1528;-43
2022/02/28 02:32:55;;;;;;;;;;;;;;;;;;1039458;28;1180;-45
2022/02/28 02:33:25;;;;;;;;;;;;;;;;;;1039807;28;1655;-43
2022/02/28 02:34:00;;;;;;;;;;;;;;;;;;1042371;28;1308;-42
2022/02/28 02:34:30;;;;;;;;;;;;;;;;;;1039428;28;1141;-42
2022/02/28 02:35:00;;;;;;;;;;;;;;;;;;1039478;28;996;-46
2022/02/28 02:35:31;;;;;;;;;;;;;;;;;;1039423;28;953;-45
2022/02/28 02:36:03;;;;;;;;;;;;;;;;;;1039411;28;1199;-41
2022/02/28 02:36:34;;;;;;;;;;;;;;;;;;1035324;28;807;-44
2022/02/28 02:37:04;;;;;;;;;;;;;;;;;;1031596;28;1165;-42
2022/02/28 02:37:34;;;;;;;;;;;;;;;;;;1035579;28;862;-45
2022/02/28 02:38:05;;;;;;;;;;;;;;;;;;1039278;28;1151;-46
2022/02/28 02:38:36;;;;;;;;;;;;;;;;;;1039431;28;1137;-42
2022/02/28 02:39:07;;;;;;;;;;;;;;;;;;1043164;28;826;-41
2022/02/28 02:39:41;;;;;;;;;;;;;;;;;;1043475;28;901;-43
2022/02/28 02:40:11;;;;;;;;;;;;;;;;;;1044225;28;1176;-43
2022/02/28 02:40:42;;;;;;;;;;;;;;;;;;1043338;28;1398;-41
2022/02/28 02:41:12;;;;;;;;;;;;;;;;;;1043807;28;853;-43
2022/02/28 02:41:42;;;;;;;;;;;;;;;;;;1043380;28;1020;-42
2022/02/28 02:42:13;;;;;;;;;;;;;;;;;;1043865;28;1144;-41
2022/02/28 02:42:44;;;;;;;;;;;;;;;;;;1043499;28;1219;-43
2022/02/28 02:43:16;;;;;;;;;;;;;;;;;;1039415;28;1235;-43
2022/02/28 02:43:47;;;;;;;;;;;;;;;;;;1035175;28;1226;-42
2022/02/28 02:44:17;;;;;;;;;;;;;;;;;;1035676;28;1183;-41
2022/02/28 02:44:48;;;;;;;;;;;;;;;;;;1039451;28;1181;-43
2022/02/28 02:45:18;;;;;;;;;;;;;;;;;;1039572;28;1161;-43
2022/02/28 02:45:49;;;;;;;;;;;;;;;;;;1043530;28;814;-46
2022/02/28 02:46:19;;;;;;;;;;;;;;;;;;1043443;28;1259;-42
2022/02/28 02:47:03;;;;;;;;;;;;;;;;;;1045250;28;1291;-43
2022/02/28 02:47:46;;;;;;;;;;;;;;;;;;1043343;28;979;-42
2022/02/28 02:48:20;;;;;;;;;;;;;;;;;;1035336;28;1335;-41
2022/02/28 02:48:59;;;;;;;;;;;;;;;;;;1034545;28;1110;-41
2022/02/28 02:49:30;;;;;;;;;;;;;;;;;;1039309;28;1397;-41
2022/02/28 02:50:01;;;;;;;;;;;;;;;;;;1040721;28;1922;-40
2022/02/28 02:50:33;;;;;;;;;;;;;;;;;;1043032;28;1315;-44
2022/02/28 02:51:06;;;;;;;;;;;;;;;;;;1039832;28;1286;-44
2022/02/28 02:51:37;;;;;;;;;;;;;;;;;;1039986;28;1230;-44
2022/02/28 02:52:08;;;;;;;;;;;;;;;;;;1039433;28;1174;-40
2022/02/28 02:52:40;;;;;;;;;;;;;;;;;;1039161;28;1347;-41
2022/02/28 02:53:11;;;;;;;;;;;;;;;;;;1035680;28;1173;-41
2022/02/28 02:53:42;;;;;;;;;;;;;;;;;;1035549;28;1610;-40
2022/02/28 02:54:12;;;;;;;;;;;;;;;;;;1034593;28;1296;-42
2022/02/28 02:54:43;;;;;;;;;;;;;;;;;;1031240;28;889;-41
2022/02/28 02:55:15;;;;;;;;;;;;;;;;;;1031592;28;984;-42
2022/02/28 02:55:46;;;;;;;;;;;;;;;;;;1031361;28;1152;-41
2022/02/28 02:56:20;;;;;;;;;;;;;;;;;;1035769;28;1203;-41
2022/02/28 02:56:51;;;;;;;;;;;;;;;;;;1039992;28;819;-41
2022/02/28 02:57:22;;;;;;;;;;;;;;;;;;1043492;28;1321;-41
2022/02/28 02:57:53;;;;;;;;;;;;;;;;;;1044007;28;1180;-43
2022/02/28 02:58:23;;;;;;;;;;;;;;;;;;1043443;28;1278;-41
2022/02/28 02:58:55;;;;;;;;;;;;;;;;;;1043204;28;814;-41
2022/02/28 02:59:26;;;;;;;;;;;;;;;;;;1043358;28;1348;-41
2022/02/28 03:00:00;;;;;;;;;;;;;;;;;;1043466;28;1743;-41
2022/02/28 03:00:31;;;;;;;;;;;;;;;;;;1039317;28;1079;-41
2022/02/28 03:01:07;;;;;;;;;;;;;;;;;;1035023;28;1153;-43
2022/02/28 03:01:39;;;;;;;;;;;;;;;;;;1036008;28;873;-43
2022/02/28 03:02:10;;;;;;;;;;;;;;;;;;1036414;28;1270;-42
2022/02/28 03:02:40;;;;;;;;;;;;;;;;;;1035365;28;1260;-41
2022/02/28 03:03:11;;;;;;;;;;;;;;;;;;1039360;28;1131;-44
2022/02/28 03:03:42;;;;;;;;;;;;;;;;;;1035243;28;1489;-44
2022/02/28 03:04:13;;;;;;;;;;;;;;;;;;1035252;28;1347;-45
2022/02/28 03:04:43;;;;;;;;;;;;;;;;;;1035475;28;775;-42
2022/02/28 03:05:14;;;;;;;;;;;;;;;;;;1035349;28;932;-44
2022/02/28 03:05:48;;;;;;;;;;;;;;;;;;1039351;28;854;-43
2022/02/28 03:06:19;;;;;;;;;;;;;;;;;;1043326;28;1337;-43
2022/02/28 03:06:49;;;;;;;;;;;;;;;;;;1044096;28;1246;-41
2022/02/28 03:07:20;;;;;;;;;;;;;;;;;;1043389;28;1230;-42
2022/02/28 03:07:52;;;;;;;;;;;;;;;;;;1043149;28;1266;-40
2022/02/28 03:08:22;;;;;;;;;;;;;;;;;;1039092;28;987;-43
2022/02/28 03:08:54;;;;;;;;;;;;;;;;;;1030489;28;1172;-41
2022/02/28 03:09:24;;;;;;;;;;;;;;;;;;1031305;28;839;-42
2022/02/28 03:09:54;;;;;;;;;;;;;;;;;;1039434;28;1290;-42
2022/02/28 03:10:25;;;;;;;;;;;;;;;;;;1043454;28;1984;-41
2022/02/28 03:10:57;;;;;;;;;;;;;;;;;;1043401;28;1251;-40
2022/02/28 03:11:27;;;;;;;;;;;;;;;;;;1043296;28;1231;-42
2022/02/28 03:11:58;;;;;;;;;;;;;;;;;;1043440;28;1297;-43
2022/02/28 03:12:28;;;;;;;;;;;;;;;;;;1039215;28;1198;-42
2022/02/28 03:13:01;;;;;;;;;;;;;;;;;;1035444;28;1705;-41
2022/02/28 03:13:31;;;;;;;;;;;;;;;;;;1035565;28;1235;-46
2022/02/28 03:14:02;;;;;;;;;;;;;;;;;;1039573;28;1212;-42
2022/02/28 03:14:32;;;;;;;;;;;;;;;;;;1043467;28;929;-41
2022/02/28 03:15:03;;;;;;;;;;;;;;;;;;1043425;28;1437;-41
2022/02/28 03:15:33;;;;;;;;;;;;;;;;;;1043395;28;1000;-41
2022/02/28 03:16:06;;;;;;;;;;;;;;;;;;1042993;28;1398;-40
2022/02/28 03:16:40;;;;;;;;;;;;;;;;;;1043316;28;1395;-42
2022/02/28 03:17:10;;;;;;;;;;;;;;;;;;1042648;28;787;-45
2022/02/28 03:17:41;;;;;;;;;;;;;;;;;;1039631;28;1197;-41
2022/02/28 03:18:11;;;;;;;;;;;;;;;;;;1043509;28;1294;-43
2022/02/28 03:18:43;;;;;;;;;;;;;;;;;;1043375;28;1238;-42
2022/02/28 03:19:13;;;;;;;;;;;;;;;;;;1043271;28;850;-44
2022/02/28 03:19:49;;;;;;;;;;;;;;;;;;1043199;28;1527;-42
2022/02/28 03:20:20;;;;;;;;;;;;;;;;;;1044423;28;834;-45
2022/02/28 03:20:50;;;;;;;;;;;;;;;;;;1047497;28;1172;-42
2022/02/28 03:21:21;;;;;;;;;;;;;;;;;;1043363;28;1262;-41
2022/02/28 03:21:52;;;;;;;;;;;;;;;;;;1043366;28;1183;-43
2022/02/28 03:22:22;;;;;;;;;;;;;;;;;;1039096;28;1349;-41
2022/02/28 03:22:53;;;;;;;;;;;;;;;;;;1039426;28;815;-41
2022/02/28 03:23:25;;;;;;;;;;;;;;;;;;1039250;28;1337;-40
2022/02/28 03:24:04;;;;;;;;;;;;;;;;;;1040450;28;1830;-42
2022/02/28 03:24:35;;;;;;;;;;;;;;;;;;1043539;28;1132;-41
2022/02/28 03:25:05;;;;;;;;;;;;;;;;;;1043241;28;1267;-42
2022/02/28 03:25:41;;;;;;;;;;;;;;;;;;1039185;28;1309;-43
2022/02/28 03:26:12;;;;;;;;;;;;;;;;;;1035116;28;1247;-40
2022/02/28 03:26:45;;;;;;;;;;;;;;;;;;1032291;28;1294;-40
2022/02/28 03:27:15;;;;;;;;;;;;;;;;;;1031708;28;1267;-43
2022/02/28 03:27:50;;;;;;;;;;;;;;;;;;1031922;28;1400;-41
2022/02/28 03:28:21;;;;;;;;;;;;;;;;;;1031812;28;1188;-42
2022/02/28 03:28:53;;;;;;;;;;;;;;;;;;1035129;28;1577;-42
2022/02/28 03:29:24;;;;;;;;;;;;;;;;;;1031357;28;1232;-42
2022/02/28 03:29:54;;;;;;;;;;;;;;;;;;1035606;28;827;-41
2022/02/28 03:30:25;;;;;;;;;;;;;;;;;;1039201;28;1914;-43
2022/02/28 03:30:56;;;;;;;;;;;;;;;;;;1043211;28;810;-42
2022/02/28 03:31:27;;;;;;;;;;;;;;;;;;1043237;28;1587;-43
2022/02/28 03:31:57;;;;;;;;;;;;;;;;;;1039227;28;1324;-43
2022/02/28 03:32:28;;;;;;;;;;;;;;;;;;1035153;28;1539;-41
2022/02/28 03:32:58;;;;;;;;;;;;;;;;;;1035267;28;810;-42
2022/02/28 03:33:29;;;;;;;;;;;;;;;;;;1039349;28;1160;-43
2022/02/28 03:34:00;;;;;;;;;;;;;;;;;;1039412;28;879;-41
2022/02/28 03:34:31;;;;;;;;;;;;;;;;;;1043224;28;1422;-43
2022/02/28 03:35:02;;;;;;;;;;;;;;;;;;1039223;28;1573;-41
2022/02/28 03:35:33;;;;;;;;;;;;;;;;;;1035397;28;1200;-42
2022/02/28 03:36:04;;;;;;;;;;;;;;;;;;1039188;28;1386;-43
2022/02/28 03:36:37;;;;;;;;;;;;;;;;;;1039974;28;1360;-41
2022/02/28 03:37:17;;;;;;;;;;;;;;;;;;1040977;28;1368;-43